sensor_id;sensor_type;location;lat;lon;timestamp;temperature;humidity
41694;DHT22;27377;50.666;9.150;2023-04-30T00:01:45;7.20;99.90
41694;DHT22;27377;50.666;9.150;2023-04-30T00:04:10;7.10;99.90
41694;DHT22;27377;50.666;9.150;2023-04-30T00:06:36;7.20;99.90
41694;DHT22;27377;50.666;9.150;2023-04-30T00:09:01;7.10;99.90
41694;DHT22;27377;50.666;9.150;2023-04-30T00:11:30;7.10;99.90
41694;DHT22;27377;50.666;9.150;2023-04-30T00:13:55;7.00;99.90
41694;DHT22;27377;50.666;9.150;2023-04-30T00:16:24;6.90;99.90
41694;DHT22;27377;50.666;9.150;2023-04-30T00:18:50;6.70;99.90
41694;DHT22;27377;50.666;9.150;2023-04-30T00:21:15;6.70;99.90
41694;DHT22;27377;50.666;9.150;2023-04-30T00:23:41;6.60;99.90
41694;DHT22;27377;50.666;9.150;2023-04-30T00:26:09;6.40;99.90
41694;DHT22;27377;50.666;9.150;2023-04-30T00:28:35;6.40;99.90
41694;DHT22;27377;50.666;9.150;2023-04-30T00:31:00;6.40;99.90
41694;DHT22;27377;50.666;9.150;2023-04-30T00:33:27;6.30;99.90
41694;DHT22;27377;50.666;9.150;2023-04-30T00:35:52;6.30;99.90
41694;DHT22;27377;50.666;9.150;2023-04-30T00:38:18;6.40;99.90
41694;DHT22;27377;50.666;9.150;2023-04-30T00:40:43;6.40;99.90
41694;DHT22;27377;50.666;9.150;2023-04-30T00:43:10;6.40;99.90
41694;DHT22;27377;50.666;9.150;2023-04-30T00:45:36;6.40;99.90
41694;DHT22;27377;50.666;9.150;2023-04-30T00:48:02;6.40;99.90
41694;DHT22;27377;50.666;9.150;2023-04-30T00:50:28;6.40;99.90
41694;DHT22;27377;50.666;9.150;2023-04-30T00:52:54;6.30;99.90
41694;DHT22;27377;50.666;9.150;2023-04-30T00:55:20;6.20;99.90
41694;DHT22;27377;50.666;9.150;2023-04-30T00:57:45;6.20;99.90
41694;DHT22;27377;50.666;9.150;2023-04-30T01:00:11;6.10;99.90
41694;DHT22;27377;50.666;9.150;2023-04-30T01:02:38;6.10;99.90
41694;DHT22;27377;50.666;9.150;2023-04-30T01:05:05;6.00;99.90
41694;DHT22;27377;50.666;9.150;2023-04-30T01:07:32;5.90;99.90
41694;DHT22;27377;50.666;9.150;2023-04-30T01:09:58;5.90;99.90
41694;DHT22;27377;50.666;9.150;2023-04-30T01:12:46;5.90;99.90
41694;DHT22;27377;50.666;9.150;2023-04-30T01:18:04;5.80;99.90
41694;DHT22;27377;50.666;9.150;2023-04-30T01:20:38;5.70;99.90
41694;DHT22;27377;50.666;9.150;2023-04-30T01:26:13;5.60;99.90
41694;DHT22;27377;50.666;9.150;2023-04-30T01:28:43;5.70;99.90
41694;DHT22;27377;50.666;9.150;2023-04-30T01:31:14;5.60;99.90
41694;DHT22;27377;50.666;9.150;2023-04-30T01:33:41;5.60;99.90
41694;DHT22;27377;50.666;9.150;2023-04-30T01:36:12;5.50;99.90
41694;DHT22;27377;50.666;9.150;2023-04-30T01:44:11;5.60;99.90
41694;DHT22;27377;50.666;9.150;2023-04-30T01:46:39;5.60;99.90
41694;DHT22;27377;50.666;9.150;2023-04-30T01:49:20;5.70;99.90
41694;DHT22;27377;50.666;9.150;2023-04-30T01:51:54;5.70;99.90
41694;DHT22;27377;50.666;9.150;2023-04-30T01:54:37;5.80;99.90
41694;DHT22;27377;50.666;9.150;2023-04-30T01:57:13;5.80;99.90
41694;DHT22;27377;50.666;9.150;2023-04-30T01:59:44;5.70;99.90
41694;DHT22;27377;50.666;9.150;2023-04-30T02:02:11;5.60;99.90
41694;DHT22;27377;50.666;9.150;2023-04-30T02:04:39;5.50;99.90
41694;DHT22;27377;50.666;9.150;2023-04-30T02:07:04;5.40;99.90
41694;DHT22;27377;50.666;9.150;2023-04-30T02:09:30;5.40;99.90
41694;DHT22;27377;50.666;9.150;2023-04-30T02:11:56;5.50;99.90
41694;DHT22;27377;50.666;9.150;2023-04-30T02:14:22;5.50;99.90
41694;DHT22;27377;50.666;9.150;2023-04-30T02:16:47;5.50;99.90
41694;DHT22;27377;50.666;9.150;2023-04-30T02:19:13;5.50;99.90
41694;DHT22;27377;50.666;9.150;2023-04-30T02:21:40;5.40;99.90
41694;DHT22;27377;50.666;9.150;2023-04-30T02:24:06;5.30;99.90
41694;DHT22;27377;50.666;9.150;2023-04-30T02:26:32;5.30;99.90
41694;DHT22;27377;50.666;9.150;2023-04-30T02:28:57;5.30;99.90
41694;DHT22;27377;50.666;9.150;2023-04-30T02:31:26;5.20;99.90
41694;DHT22;27377;50.666;9.150;2023-04-30T02:33:52;5.20;99.90
41694;DHT22;27377;50.666;9.150;2023-04-30T02:36:17;5.20;99.90
41694;DHT22;27377;50.666;9.150;2023-04-30T02:38:43;5.20;99.90
41694;DHT22;27377;50.666;9.150;2023-04-30T02:41:09;5.10;99.90
41694;DHT22;27377;50.666;9.150;2023-04-30T02:43:37;5.00;99.90
41694;DHT22;27377;50.666;9.150;2023-04-30T02:46:03;5.10;99.90
41694;DHT22;27377;50.666;9.150;2023-04-30T02:48:28;5.10;99.90
41694;DHT22;27377;50.666;9.150;2023-04-30T02:50:54;5.10;99.90
41694;DHT22;27377;50.666;9.150;2023-04-30T02:53:19;5.20;99.90
41694;DHT22;27377;50.666;9.150;2023-04-30T02:55:45;5.10;99.90
41694;DHT22;27377;50.666;9.150;2023-04-30T02:58:10;5.10;99.90
41694;DHT22;27377;50.666;9.150;2023-04-30T03:00:36;5.00;99.90
41694;DHT22;27377;50.666;9.150;2023-04-30T03:03:02;4.90;99.90
41694;DHT22;27377;50.666;9.150;2023-04-30T03:05:28;4.90;99.90
41694;DHT22;27377;50.666;9.150;2023-04-30T03:07:54;4.80;99.90
41694;DHT22;27377;50.666;9.150;2023-04-30T03:10:20;4.70;99.90
41694;DHT22;27377;50.666;9.150;2023-04-30T03:12:46;4.70;99.90
41694;DHT22;27377;50.666;9.150;2023-04-30T03:15:11;4.60;99.90
41694;DHT22;27377;50.666;9.150;2023-04-30T03:17:37;4.50;99.90
41694;DHT22;27377;50.666;9.150;2023-04-30T03:20:03;4.50;99.90
41694;DHT22;27377;50.666;9.150;2023-04-30T03:22:29;4.50;99.90
41694;DHT22;27377;50.666;9.150;2023-04-30T03:24:55;4.50;99.90
41694;DHT22;27377;50.666;9.150;2023-04-30T03:27:20;4.50;99.90
41694;DHT22;27377;50.666;9.150;2023-04-30T03:29:46;4.50;99.90
41694;DHT22;27377;50.666;9.150;2023-04-30T03:32:11;4.60;99.90
41694;DHT22;27377;50.666;9.150;2023-04-30T03:34:37;4.60;99.90
41694;DHT22;27377;50.666;9.150;2023-04-30T03:37:03;4.50;99.90
41694;DHT22;27377;50.666;9.150;2023-04-30T03:39:28;4.50;99.90
41694;DHT22;27377;50.666;9.150;2023-04-30T03:41:54;4.50;99.90
41694;DHT22;27377;50.666;9.150;2023-04-30T03:44:19;4.50;99.90
41694;DHT22;27377;50.666;9.150;2023-04-30T03:46:45;4.40;99.90
41694;DHT22;27377;50.666;9.150;2023-04-30T03:49:10;4.20;99.90
41694;DHT22;27377;50.666;9.150;2023-04-30T03:51:37;4.10;99.90
41694;DHT22;27377;50.666;9.150;2023-04-30T03:54:06;4.10;99.90
41694;DHT22;27377;50.666;9.150;2023-04-30T03:56:35;4.10;99.90
41694;DHT22;27377;50.666;9.150;2023-04-30T03:59:01;4.20;99.90
41694;DHT22;27377;50.666;9.150;2023-04-30T04:01:28;4.20;99.90
41694;DHT22;27377;50.666;9.150;2023-04-30T04:03:54;4.20;99.90
41694;DHT22;27377;50.666;9.150;2023-04-30T04:06:19;4.10;99.90
41694;DHT22;27377;50.666;9.150;2023-04-30T04:08:45;4.10;99.90
41694;DHT22;27377;50.666;9.150;2023-04-30T04:11:11;4.10;99.90
41694;DHT22;27377;50.666;9.150;2023-04-30T04:13:37;4.10;99.90
41694;DHT22;27377;50.666;9.150;2023-04-30T04:16:02;4.10;99.90
41694;DHT22;27377;50.666;9.150;2023-04-30T04:18:28;4.00;99.90
41694;DHT22;27377;50.666;9.150;2023-04-30T04:20:54;4.00;99.90
41694;DHT22;27377;50.666;9.150;2023-04-30T04:23:21;3.90;99.90
41694;DHT22;27377;50.666;9.150;2023-04-30T04:25:46;4.00;99.90
41694;DHT22;27377;50.666;9.150;2023-04-30T04:28:14;4.00;99.90
41694;DHT22;27377;50.666;9.150;2023-04-30T04:30:40;4.10;99.90
41694;DHT22;27377;50.666;9.150;2023-04-30T04:33:06;4.10;99.90
41694;DHT22;27377;50.666;9.150;2023-04-30T04:35:32;4.10;99.90
41694;DHT22;27377;50.666;9.150;2023-04-30T04:37:57;4.10;99.90
41694;DHT22;27377;50.666;9.150;2023-04-30T04:40:23;4.10;99.90
41694;DHT22;27377;50.666;9.150;2023-04-30T04:42:49;4.10;99.90
41694;DHT22;27377;50.666;9.150;2023-04-30T04:45:18;4.20;99.90
41694;DHT22;27377;50.666;9.150;2023-04-30T04:47:45;4.10;99.90
41694;DHT22;27377;50.666;9.150;2023-04-30T04:50:11;4.00;99.90
41694;DHT22;27377;50.666;9.150;2023-04-30T04:52:36;4.00;99.90
41694;DHT22;27377;50.666;9.150;2023-04-30T04:55:03;4.00;99.90
41694;DHT22;27377;50.666;9.150;2023-04-30T04:57:29;4.00;99.90
41694;DHT22;27377;50.666;9.150;2023-04-30T04:59:55;4.00;99.90
41694;DHT22;27377;50.666;9.150;2023-04-30T05:02:20;4.00;99.90
41694;DHT22;27377;50.666;9.150;2023-04-30T05:04:48;4.00;99.90
41694;DHT22;27377;50.666;9.150;2023-04-30T05:07:17;4.10;99.90
41694;DHT22;27377;50.666;9.150;2023-04-30T05:09:44;4.10;99.90
41694;DHT22;27377;50.666;9.150;2023-04-30T05:12:11;4.10;99.90
41694;DHT22;27377;50.666;9.150;2023-04-30T05:14:37;4.00;99.90
41694;DHT22;27377;50.666;9.150;2023-04-30T05:17:02;4.00;99.90
41694;DHT22;27377;50.666;9.150;2023-04-30T05:19:28;4.10;99.90
41694;DHT22;27377;50.666;9.150;2023-04-30T05:21:53;4.20;99.90
41694;DHT22;27377;50.666;9.150;2023-04-30T05:24:19;4.20;99.90
41694;DHT22;27377;50.666;9.150;2023-04-30T05:26:44;4.20;99.90
41694;DHT22;27377;50.666;9.150;2023-04-30T05:29:10;4.30;99.90
41694;DHT22;27377;50.666;9.150;2023-04-30T05:31:36;4.30;99.90
41694;DHT22;27377;50.666;9.150;2023-04-30T05:34:02;4.30;99.90
41694;DHT22;27377;50.666;9.150;2023-04-30T05:36:27;4.20;99.90
41694;DHT22;27377;50.666;9.150;2023-04-30T05:38:53;4.30;99.90
41694;DHT22;27377;50.666;9.150;2023-04-30T05:41:20;4.30;99.90
41694;DHT22;27377;50.666;9.150;2023-04-30T05:43:46;4.50;99.90
41694;DHT22;27377;50.666;9.150;2023-04-30T05:46:12;4.50;99.90
41694;DHT22;27377;50.666;9.150;2023-04-30T05:48:37;4.50;99.90
41694;DHT22;27377;50.666;9.150;2023-04-30T05:51:03;4.60;99.90
41694;DHT22;27377;50.666;9.150;2023-04-30T05:53:30;4.60;99.90
41694;DHT22;27377;50.666;9.150;2023-04-30T05:55:56;4.60;99.90
41694;DHT22;27377;50.666;9.150;2023-04-30T05:58:21;4.70;99.90
41694;DHT22;27377;50.666;9.150;2023-04-30T06:00:50;4.80;99.90
41694;DHT22;27377;50.666;9.150;2023-04-30T06:03:17;4.90;99.90
41694;DHT22;27377;50.666;9.150;2023-04-30T06:05:43;5.00;99.90
41694;DHT22;27377;50.666;9.150;2023-04-30T06:08:09;5.20;99.90
41694;DHT22;27377;50.666;9.150;2023-04-30T06:10:34;5.40;99.90
41694;DHT22;27377;50.666;9.150;2023-04-30T06:13:00;5.60;99.90
41694;DHT22;27377;50.666;9.150;2023-04-30T06:15:26;5.70;99.90
41694;DHT22;27377;50.666;9.150;2023-04-30T06:17:51;5.90;99.90
41694;DHT22;27377;50.666;9.150;2023-04-30T06:20:17;6.00;99.90
41694;DHT22;27377;50.666;9.150;2023-04-30T06:22:43;6.10;99.90
41694;DHT22;27377;50.666;9.150;2023-04-30T06:25:09;6.20;99.90
41694;DHT22;27377;50.666;9.150;2023-04-30T06:27:34;6.40;99.90
41694;DHT22;27377;50.666;9.150;2023-04-30T06:30:00;6.50;99.90
41694;DHT22;27377;50.666;9.150;2023-04-30T06:32:26;6.60;99.90
41694;DHT22;27377;50.666;9.150;2023-04-30T06:34:54;6.70;99.90
41694;DHT22;27377;50.666;9.150;2023-04-30T06:37:20;6.70;99.90
41694;DHT22;27377;50.666;9.150;2023-04-30T06:39:46;6.90;99.90
41694;DHT22;27377;50.666;9.150;2023-04-30T06:42:12;6.90;99.90
41694;DHT22;27377;50.666;9.150;2023-04-30T06:44:37;6.90;99.90
41694;DHT22;27377;50.666;9.150;2023-04-30T06:47:03;7.00;99.90
41694;DHT22;27377;50.666;9.150;2023-04-30T06:49:28;7.10;99.90
41694;DHT22;27377;50.666;9.150;2023-04-30T06:51:54;7.20;99.90
41694;DHT22;27377;50.666;9.150;2023-04-30T06:54:23;7.30;99.90
41694;DHT22;27377;50.666;9.150;2023-04-30T06:56:50;7.30;99.90
41694;DHT22;27377;50.666;9.150;2023-04-30T06:59:16;7.30;99.90
41694;DHT22;27377;50.666;9.150;2023-04-30T07:01:42;7.30;99.90
41694;DHT22;27377;50.666;9.150;2023-04-30T07:04:07;7.40;99.90
41694;DHT22;27377;50.666;9.150;2023-04-30T07:06:33;7.40;99.90
41694;DHT22;27377;50.666;9.150;2023-04-30T07:08:59;7.40;99.90
41694;DHT22;27377;50.666;9.150;2023-04-30T07:11:24;7.50;99.90
41694;DHT22;27377;50.666;9.150;2023-04-30T07:13:50;7.50;99.90
41694;DHT22;27377;50.666;9.150;2023-04-30T07:16:16;7.60;99.90
41694;DHT22;27377;50.666;9.150;2023-04-30T07:18:42;7.60;99.90
41694;DHT22;27377;50.666;9.150;2023-04-30T07:21:08;7.70;99.90
41694;DHT22;27377;50.666;9.150;2023-04-30T07:23:34;7.80;99.90
41694;DHT22;27377;50.666;9.150;2023-04-30T07:25:59;7.80;99.90
41694;DHT22;27377;50.666;9.150;2023-04-30T07:28:25;7.80;99.90
41694;DHT22;27377;50.666;9.150;2023-04-30T07:30:50;7.90;99.90
41694;DHT22;27377;50.666;9.150;2023-04-30T07:33:17;8.00;99.90
41694;DHT22;27377;50.666;9.150;2023-04-30T07:35:42;8.10;99.90
41694;DHT22;27377;50.666;9.150;2023-04-30T07:38:08;8.10;99.90
41694;DHT22;27377;50.666;9.150;2023-04-30T07:40:33;8.10;99.90
41694;DHT22;27377;50.666;9.150;2023-04-30T07:42:59;8.10;99.90
41694;DHT22;27377;50.666;9.150;2023-04-30T07:45:24;8.10;99.90
41694;DHT22;27377;50.666;9.150;2023-04-30T07:47:50;8.20;99.90
41694;DHT22;27377;50.666;9.150;2023-04-30T07:50:16;8.20;99.90
41694;DHT22;27377;50.666;9.150;2023-04-30T07:52:41;8.30;99.90
41694;DHT22;27377;50.666;9.150;2023-04-30T07:55:07;8.30;99.90
41694;DHT22;27377;50.666;9.150;2023-04-30T07:57:34;8.40;99.90
41694;DHT22;27377;50.666;9.150;2023-04-30T07:59:59;8.40;99.90
41694;DHT22;27377;50.666;9.150;2023-04-30T08:02:25;8.50;99.90
41694;DHT22;27377;50.666;9.150;2023-04-30T08:04:50;8.50;99.90
41694;DHT22;27377;50.666;9.150;2023-04-30T08:07:16;8.60;99.90
41694;DHT22;27377;50.666;9.150;2023-04-30T08:09:42;8.60;99.90
41694;DHT22;27377;50.666;9.150;2023-04-30T08:12:08;8.70;99.90
41694;DHT22;27377;50.666;9.150;2023-04-30T08:14:33;8.70;99.90
41694;DHT22;27377;50.666;9.150;2023-04-30T08:16:59;8.80;99.90
41694;DHT22;27377;50.666;9.150;2023-04-30T08:19:26;8.80;99.90
41694;DHT22;27377;50.666;9.150;2023-04-30T08:21:52;8.80;99.90
41694;DHT22;27377;50.666;9.150;2023-04-30T08:24:18;8.90;99.90
41694;DHT22;27377;50.666;9.150;2023-04-30T08:26:43;9.00;99.90
41694;DHT22;27377;50.666;9.150;2023-04-30T08:29:08;9.00;99.90
41694;DHT22;27377;50.666;9.150;2023-04-30T08:31:34;9.00;99.90
41694;DHT22;27377;50.666;9.150;2023-04-30T08:34:00;9.10;99.90
41694;DHT22;27377;50.666;9.150;2023-04-30T08:36:25;9.10;99.90
41694;DHT22;27377;50.666;9.150;2023-04-30T08:38:52;9.20;99.90
41694;DHT22;27377;50.666;9.150;2023-04-30T08:41:19;9.30;99.90
41694;DHT22;27377;50.666;9.150;2023-04-30T08:43:47;9.30;99.90
41694;DHT22;27377;50.666;9.150;2023-04-30T08:46:17;9.30;99.90
41694;DHT22;27377;50.666;9.150;2023-04-30T08:48:43;9.40;99.90
41694;DHT22;27377;50.666;9.150;2023-04-30T08:51:09;9.50;99.90
41694;DHT22;27377;50.666;9.150;2023-04-30T08:53:36;9.40;99.90
41694;DHT22;27377;50.666;9.150;2023-04-30T08:56:03;9.50;99.90
41694;DHT22;27377;50.666;9.150;2023-04-30T08:58:29;9.50;99.90
41694;DHT22;27377;50.666;9.150;2023-04-30T09:00:57;9.60;99.90
41694;DHT22;27377;50.666;9.150;2023-04-30T09:03:23;9.70;99.90
41694;DHT22;27377;50.666;9.150;2023-04-30T09:05:49;9.80;99.90
41694;DHT22;27377;50.666;9.150;2023-04-30T09:08:18;9.80;99.90
41694;DHT22;27377;50.666;9.150;2023-04-30T09:10:44;9.80;99.90
41694;DHT22;27377;50.666;9.150;2023-04-30T09:13:10;9.90;99.90
41694;DHT22;27377;50.666;9.150;2023-04-30T09:15:37;9.90;99.90
41694;DHT22;27377;50.666;9.150;2023-04-30T09:18:09;10.00;99.90
41694;DHT22;27377;50.666;9.150;2023-04-30T09:20:36;10.00;99.90
41694;DHT22;27377;50.666;9.150;2023-04-30T09:23:09;10.10;99.90
41694;DHT22;27377;50.666;9.150;2023-04-30T09:25:41;10.10;99.90
41694;DHT22;27377;50.666;9.150;2023-04-30T09:28:11;10.20;99.90
41694;DHT22;27377;50.666;9.150;2023-04-30T09:30:38;10.20;99.90
41694;DHT22;27377;50.666;9.150;2023-04-30T09:33:04;10.20;99.90
41694;DHT22;27377;50.666;9.150;2023-04-30T09:35:32;10.30;99.90
41694;DHT22;27377;50.666;9.150;2023-04-30T09:38:00;10.30;99.90
41694;DHT22;27377;50.666;9.150;2023-04-30T09:40:47;10.40;99.90
41694;DHT22;27377;50.666;9.150;2023-04-30T09:43:12;10.50;99.90
41694;DHT22;27377;50.666;9.150;2023-04-30T09:45:45;10.50;99.90
41694;DHT22;27377;50.666;9.150;2023-04-30T09:48:16;10.50;99.90
41694;DHT22;27377;50.666;9.150;2023-04-30T09:50:41;10.60;99.90
41694;DHT22;27377;50.666;9.150;2023-04-30T09:53:08;10.60;99.90
41694;DHT22;27377;50.666;9.150;2023-04-30T09:55:35;10.70;99.90
41694;DHT22;27377;50.666;9.150;2023-04-30T09:58:05;10.80;99.90
41694;DHT22;27377;50.666;9.150;2023-04-30T10:00:35;10.90;99.90
41694;DHT22;27377;50.666;9.150;2023-04-30T10:03:14;10.90;99.90
41694;DHT22;27377;50.666;9.150;2023-04-30T10:05:47;11.00;99.90
41694;DHT22;27377;50.666;9.150;2023-04-30T10:08:30;10.90;99.90
41694;DHT22;27377;50.666;9.150;2023-04-30T10:11:03;11.00;99.90
41694;DHT22;27377;50.666;9.150;2023-04-30T10:13:48;11.00;99.90
41694;DHT22;27377;50.666;9.150;2023-04-30T10:16:42;11.00;99.90
41694;DHT22;27377;50.666;9.150;2023-04-30T10:19:17;11.10;99.90
41694;DHT22;27377;50.666;9.150;2023-04-30T10:21:45;11.10;99.90
41694;DHT22;27377;50.666;9.150;2023-04-30T10:24:15;11.20;99.90
41694;DHT22;27377;50.666;9.150;2023-04-30T10:26:44;11.30;99.90
41694;DHT22;27377;50.666;9.150;2023-04-30T10:29:12;11.40;99.90
41694;DHT22;27377;50.666;9.150;2023-04-30T10:31:39;11.40;99.90
41694;DHT22;27377;50.666;9.150;2023-04-30T10:36:59;11.50;99.90
41694;DHT22;27377;50.666;9.150;2023-04-30T10:39:27;11.50;99.90
41694;DHT22;27377;50.666;9.150;2023-04-30T10:42:01;11.50;99.90
41694;DHT22;27377;50.666;9.150;2023-04-30T10:44:26;11.60;99.90
41694;DHT22;27377;50.666;9.150;2023-04-30T10:47:03;11.60;99.90
41694;DHT22;27377;50.666;9.150;2023-04-30T10:49:30;11.70;99.90
41694;DHT22;27377;50.666;9.150;2023-04-30T10:51:59;11.70;99.90
41694;DHT22;27377;50.666;9.150;2023-04-30T10:54:32;11.80;99.90
41694;DHT22;27377;50.666;9.150;2023-04-30T10:57:11;11.80;99.90
41694;DHT22;27377;50.666;9.150;2023-04-30T10:59:41;11.80;99.90
41694;DHT22;27377;50.666;9.150;2023-04-30T11:02:09;11.80;99.90
41694;DHT22;27377;50.666;9.150;2023-04-30T11:07:30;11.90;99.90
41694;DHT22;27377;50.666;9.150;2023-04-30T11:09:56;11.90;99.90
41694;DHT22;27377;50.666;9.150;2023-04-30T11:12:22;11.80;99.90
41694;DHT22;27377;50.666;9.150;2023-04-30T11:14:59;11.90;99.90
41694;DHT22;27377;50.666;9.150;2023-04-30T11:17:26;11.90;99.90
41694;DHT22;27377;50.666;9.150;2023-04-30T11:19:52;11.90;99.90
41694;DHT22;27377;50.666;9.150;2023-04-30T11:22:21;11.90;99.90
41694;DHT22;27377;50.666;9.150;2023-04-30T11:27:23;12.10;99.90
41694;DHT22;27377;50.666;9.150;2023-04-30T11:29:50;12.10;99.90
41694;DHT22;27377;50.666;9.150;2023-04-30T11:32:21;12.20;99.90
41694;DHT22;27377;50.666;9.150;2023-04-30T11:34:48;12.20;99.90
41694;DHT22;27377;50.666;9.150;2023-04-30T11:37:24;12.30;99.90
41694;DHT22;27377;50.666;9.150;2023-04-30T11:39:54;12.30;99.90
41694;DHT22;27377;50.666;9.150;2023-04-30T11:42:20;12.30;99.90
41694;DHT22;27377;50.666;9.150;2023-04-30T11:44:46;12.30;99.90
41694;DHT22;27377;50.666;9.150;2023-04-30T11:47:12;12.30;99.90
41694;DHT22;27377;50.666;9.150;2023-04-30T11:49:39;12.20;99.90
41694;DHT22;27377;50.666;9.150;2023-04-30T11:52:04;12.20;99.90
41694;DHT22;27377;50.666;9.150;2023-04-30T11:54:31;12.30;99.90
41694;DHT22;27377;50.666;9.150;2023-04-30T11:56:56;12.30;99.90
41694;DHT22;27377;50.666;9.150;2023-04-30T11:59:31;12.30;99.90
41694;DHT22;27377;50.666;9.150;2023-04-30T12:02:04;12.30;99.90
41694;DHT22;27377;50.666;9.150;2023-04-30T12:04:30;12.40;99.90
41694;DHT22;27377;50.666;9.150;2023-04-30T12:06:56;12.50;99.90
41694;DHT22;27377;50.666;9.150;2023-04-30T12:09:22;12.50;99.90
41694;DHT22;27377;50.666;9.150;2023-04-30T12:11:48;12.50;99.90
41694;DHT22;27377;50.666;9.150;2023-04-30T12:14:14;12.50;99.90
41694;DHT22;27377;50.666;9.150;2023-04-30T12:16:51;12.50;99.90
41694;DHT22;27377;50.666;9.150;2023-04-30T12:19:18;12.60;99.90
41694;DHT22;27377;50.666;9.150;2023-04-30T12:21:45;12.60;99.90
41694;DHT22;27377;50.666;9.150;2023-04-30T12:24:13;12.60;99.90
41694;DHT22;27377;50.666;9.150;2023-04-30T12:26:40;12.60;99.90
41694;DHT22;27377;50.666;9.150;2023-04-30T12:29:16;12.60;99.90
41694;DHT22;27377;50.666;9.150;2023-04-30T12:31:43;12.60;99.90
41694;DHT22;27377;50.666;9.150;2023-04-30T12:34:13;12.60;99.90
41694;DHT22;27377;50.666;9.150;2023-04-30T12:36:40;12.60;99.90
41694;DHT22;27377;50.666;9.150;2023-04-30T12:39:13;12.60;99.90
41694;DHT22;27377;50.666;9.150;2023-04-30T12:41:47;12.70;99.90
41694;DHT22;27377;50.666;9.150;2023-04-30T12:44:20;12.80;99.90
41694;DHT22;27377;50.666;9.150;2023-04-30T12:46:47;12.80;99.90
41694;DHT22;27377;50.666;9.150;2023-04-30T12:49:33;12.90;99.90
41694;DHT22;27377;50.666;9.150;2023-04-30T12:52:12;12.90;99.90
41694;DHT22;27377;50.666;9.150;2023-04-30T12:54:38;12.90;99.90
41694;DHT22;27377;50.666;9.150;2023-04-30T12:57:09;12.90;99.90
41694;DHT22;27377;50.666;9.150;2023-04-30T13:02:12;13.00;99.90
41694;DHT22;27377;50.666;9.150;2023-04-30T13:04:42;13.00;99.90
41694;DHT22;27377;50.666;9.150;2023-04-30T13:07:08;13.10;99.90
41694;DHT22;27377;50.666;9.150;2023-04-30T13:09:35;13.00;99.90
41694;DHT22;27377;50.666;9.150;2023-04-30T13:12:04;13.10;99.90
41694;DHT22;27377;50.666;9.150;2023-04-30T13:14:31;13.10;99.90
41694;DHT22;27377;50.666;9.150;2023-04-30T13:16:57;13.10;99.90
41694;DHT22;27377;50.666;9.150;2023-04-30T13:19:23;13.20;99.90
41694;DHT22;27377;50.666;9.150;2023-04-30T13:21:48;13.20;99.90
41694;DHT22;27377;50.666;9.150;2023-04-30T13:24:14;13.20;99.90
41694;DHT22;27377;50.666;9.150;2023-04-30T13:26:40;13.30;99.90
41694;DHT22;27377;50.666;9.150;2023-04-30T13:29:05;13.30;99.90
41694;DHT22;27377;50.666;9.150;2023-04-30T13:31:31;13.30;99.90
41694;DHT22;27377;50.666;9.150;2023-04-30T13:33:57;13.40;99.90
41694;DHT22;27377;50.666;9.150;2023-04-30T13:36:22;13.40;99.90
41694;DHT22;27377;50.666;9.150;2023-04-30T13:38:50;13.40;99.90
41694;DHT22;27377;50.666;9.150;2023-04-30T13:41:16;13.40;99.90
41694;DHT22;27377;50.666;9.150;2023-04-30T13:43:41;13.50;99.90
41694;DHT22;27377;50.666;9.150;2023-04-30T13:46:09;13.50;99.90
41694;DHT22;27377;50.666;9.150;2023-04-30T13:48:34;13.60;99.90
41694;DHT22;27377;50.666;9.150;2023-04-30T13:51:00;13.60;99.90
41694;DHT22;27377;50.666;9.150;2023-04-30T13:53:26;13.60;99.90
41694;DHT22;27377;50.666;9.150;2023-04-30T13:55:52;13.60;99.90
41694;DHT22;27377;50.666;9.150;2023-04-30T13:58:18;13.60;99.90
41694;DHT22;27377;50.666;9.150;2023-04-30T14:00:44;13.60;99.90
41694;DHT22;27377;50.666;9.150;2023-04-30T14:03:09;13.60;99.90
41694;DHT22;27377;50.666;9.150;2023-04-30T14:05:36;13.70;99.90
41694;DHT22;27377;50.666;9.150;2023-04-30T14:08:05;13.70;99.90
41694;DHT22;27377;50.666;9.150;2023-04-30T14:10:31;13.70;99.90
41694;DHT22;27377;50.666;9.150;2023-04-30T14:13:00;13.70;99.90
41694;DHT22;27377;50.666;9.150;2023-04-30T14:15:25;13.70;99.90
41694;DHT22;27377;50.666;9.150;2023-04-30T14:17:51;13.70;99.90
41694;DHT22;27377;50.666;9.150;2023-04-30T14:20:18;13.70;99.90
41694;DHT22;27377;50.666;9.150;2023-04-30T14:22:43;13.70;99.90
41694;DHT22;27377;50.666;9.150;2023-04-30T14:25:09;13.70;99.90
41694;DHT22;27377;50.666;9.150;2023-04-30T14:27:36;13.70;99.90
41694;DHT22;27377;50.666;9.150;2023-04-30T14:30:02;13.80;99.90
41694;DHT22;27377;50.666;9.150;2023-04-30T14:32:28;13.70;99.90
41694;DHT22;27377;50.666;9.150;2023-04-30T14:34:53;13.70;99.90
41694;DHT22;27377;50.666;9.150;2023-04-30T14:37:19;13.70;99.90
41694;DHT22;27377;50.666;9.150;2023-04-30T14:39:45;13.70;99.90
41694;DHT22;27377;50.666;9.150;2023-04-30T14:42:10;13.80;99.90
41694;DHT22;27377;50.666;9.150;2023-04-30T14:44:37;13.80;99.90
41694;DHT22;27377;50.666;9.150;2023-04-30T14:47:03;13.80;99.90
41694;DHT22;27377;50.666;9.150;2023-04-30T14:49:29;13.90;99.90
41694;DHT22;27377;50.666;9.150;2023-04-30T14:51:54;13.90;99.90
41694;DHT22;27377;50.666;9.150;2023-04-30T14:54:20;13.90;99.90
41694;DHT22;27377;50.666;9.150;2023-04-30T14:56:46;13.90;99.90
41694;DHT22;27377;50.666;9.150;2023-04-30T14:59:12;13.90;99.90
41694;DHT22;27377;50.666;9.150;2023-04-30T15:01:38;13.90;99.90
41694;DHT22;27377;50.666;9.150;2023-04-30T15:04:03;13.90;99.90
41694;DHT22;27377;50.666;9.150;2023-04-30T15:06:29;14.00;99.90
41694;DHT22;27377;50.666;9.150;2023-04-30T15:08:55;13.90;99.90
41694;DHT22;27377;50.666;9.150;2023-04-30T15:11:21;14.00;99.90
41694;DHT22;27377;50.666;9.150;2023-04-30T15:13:48;13.90;99.90
41694;DHT22;27377;50.666;9.150;2023-04-30T15:16:14;14.00;99.90
41694;DHT22;27377;50.666;9.150;2023-04-30T15:18:41;14.00;99.90
41694;DHT22;27377;50.666;9.150;2023-04-30T15:21:07;14.00;99.90
41694;DHT22;27377;50.666;9.150;2023-04-30T15:23:33;14.00;99.90
41694;DHT22;27377;50.666;9.150;2023-04-30T15:25:58;14.00;99.90
41694;DHT22;27377;50.666;9.150;2023-04-30T15:28:24;14.00;99.90
41694;DHT22;27377;50.666;9.150;2023-04-30T15:30:50;14.10;99.90
41694;DHT22;27377;50.666;9.150;2023-04-30T15:33:17;14.10;99.90
41694;DHT22;27377;50.666;9.150;2023-04-30T15:35:44;14.10;99.90
41694;DHT22;27377;50.666;9.150;2023-04-30T15:38:10;14.10;99.90
41694;DHT22;27377;50.666;9.150;2023-04-30T15:40:35;14.10;99.90
41694;DHT22;27377;50.666;9.150;2023-04-30T15:43:01;14.20;99.90
41694;DHT22;27377;50.666;9.150;2023-04-30T15:45:27;14.20;99.90
41694;DHT22;27377;50.666;9.150;2023-04-30T15:47:54;14.20;99.90
41694;DHT22;27377;50.666;9.150;2023-04-30T15:50:19;14.20;99.90
41694;DHT22;27377;50.666;9.150;2023-04-30T15:52:46;14.10;99.90
41694;DHT22;27377;50.666;9.150;2023-04-30T15:55:11;14.00;99.90
41694;DHT22;27377;50.666;9.150;2023-04-30T15:57:37;14.00;99.90
41694;DHT22;27377;50.666;9.150;2023-04-30T16:00:03;14.00;99.90
41694;DHT22;27377;50.666;9.150;2023-04-30T16:02:30;14.00;99.90